createdAt,value
2018-07-06T00:00:42.643Z,24.9
2018-07-06T00:01:32.840Z,24.9
2018-07-06T00:02:22.425Z,24.9
2018-07-06T00:03:13.003Z,24.9
2018-07-06T00:04:03.343Z,24.9
2018-07-06T00:04:52.819Z,24.9
2018-07-06T00:05:43.445Z,24.9
2018-07-06T00:06:33.219Z,24.9
2018-07-06T00:07:23.875Z,24.9
2018-07-06T00:08:13.092Z,24.9
2018-07-06T00:09:03.432Z,24.9
2018-07-06T00:09:53.802Z,24.9
2018-07-06T00:10:43.996Z,24.9
2018-07-06T00:11:33.903Z,24.9
2018-07-06T00:12:24.146Z,24.9
2018-07-06T00:13:13.583Z,24.9
2018-07-06T00:14:03.285Z,24.9
2018-07-06T00:14:53.749Z,24.9
2018-07-06T00:15:43.955Z,24.9
2018-07-06T00:16:34.005Z,24.9
2018-07-06T00:17:24.081Z,24.9
2018-07-06T00:18:14.526Z,24.9
2018-07-06T00:19:03.672Z,24.9
2018-07-06T00:19:54.565Z,24.9
2018-07-06T00:20:44.709Z,24.9
2018-07-06T00:21:34.694Z,24.9
2018-07-06T00:22:24.721Z,24.9
2018-07-06T00:23:15.357Z,24.8
2018-07-06T00:24:04.614Z,24.8
2018-07-06T00:24:54.716Z,24.8
2018-07-06T00:25:43.860Z,24.8
2018-07-06T00:26:34.621Z,24.8
2018-07-06T00:27:23.446Z,24.8
2018-07-06T00:28:15.477Z,24.8
2018-07-06T00:29:05.278Z,24.8
2018-07-06T00:29:55.408Z,24.8
2018-07-06T00:30:45.155Z,24.8
2018-07-06T00:31:36.006Z,24.8
2018-07-06T00:32:25.501Z,24.8
2018-07-06T00:33:15.806Z,24.8
2018-07-06T00:34:05.907Z,24.8
2018-07-06T00:34:55.751Z,24.8
2018-07-06T00:35:45.780Z,24.8
2018-07-06T00:36:36.148Z,24.8
2018-07-06T00:37:25.648Z,24.8
2018-07-06T00:38:14.865Z,24.8
2018-07-06T00:39:06.425Z,24.8
2018-07-06T00:39:56.395Z,24.8
2018-07-06T00:40:46.754Z,24.8
2018-07-06T00:41:36.531Z,24.8
2018-07-06T00:42:26.341Z,24.8
2018-07-06T00:43:15.869Z,24.8
2018-07-06T00:44:05.664Z,24.8
2018-07-06T00:44:56.250Z,24.8
2018-07-06T00:45:46.370Z,24.8
2018-07-06T00:46:36.117Z,24.8
2018-07-06T00:47:26.158Z,24.8
2018-07-06T00:48:16.752Z,24.8
2018-07-06T00:49:06.070Z,24.8
2018-07-06T00:49:56.900Z,24.8
2018-07-06T00:50:46.973Z,24.8
2018-07-06T00:51:37.017Z,24.8
2018-07-06T00:52:27.196Z,24.8
2018-07-06T00:53:16.291Z,24.8
2018-07-06T00:54:06.970Z,24.8
2018-07-06T00:54:57.751Z,24.8
2018-07-06T00:55:47.195Z,24.8
2018-07-06T00:56:37.682Z,24.8
2018-07-06T00:57:26.902Z,24.8
2018-07-06T00:58:17.869Z,24.8
2018-07-06T00:59:07.043Z,24.8
2018-07-06T00:59:58.033Z,24.8
2018-07-06T01:00:48.061Z,24.8
2018-07-06T01:01:39.166Z,24.8
2018-07-06T01:02:27.014Z,24.8
2018-07-06T01:03:18.155Z,24.8
2018-07-06T01:04:08.233Z,24.8
2018-07-06T01:04:58.301Z,24.8
2018-07-06T01:05:47.266Z,24.8
2018-07-06T01:06:38.193Z,24.8
2018-07-06T01:07:28.480Z,24.8
2018-07-06T01:08:18.852Z,24.8
2018-07-06T01:09:08.353Z,24.8
2018-07-06T01:09:57.895Z,24.8
2018-07-06T01:10:47.655Z,24.8
2018-07-06T01:11:38.558Z,24.7
2018-07-06T01:12:28.396Z,24.7
2018-07-06T01:13:18.662Z,24.7
2018-07-06T01:14:09.047Z,24.7
2018-07-06T01:14:59.479Z,24.7
2018-07-06T01:15:48.392Z,24.7
2018-07-06T01:16:38.968Z,24.7
2018-07-06T01:17:28.760Z,24.7
2018-07-06T01:18:18.828Z,24.7
2018-07-06T01:19:09.749Z,24.7
2018-07-06T01:19:59.512Z,24.7
2018-07-06T01:20:48.700Z,24.7
2018-07-06T01:21:38.794Z,24.7
2018-07-06T01:22:29.155Z,24.7
2018-07-06T01:23:18.950Z,24.7
2018-07-06T01:24:09.015Z,24.7
2018-07-06T01:24:59.919Z,24.7
2018-07-06T01:25:49.465Z,24.7
2018-07-06T01:26:39.814Z,24.7
2018-07-06T01:27:29.844Z,24.7
2018-07-06T01:28:19.569Z,24.7
2018-07-06T01:29:10.066Z,24.6
2018-07-06T01:29:59.740Z,24.7
2018-07-06T01:30:49.266Z,24.7
2018-07-06T01:31:40.413Z,24.6
2018-07-06T01:32:29.910Z,24.7
2018-07-06T01:33:19.687Z,24.7
2018-07-06T01:34:10.337Z,24.7
2018-07-06T01:34:59.799Z,24.7
2018-07-06T01:35:49.639Z,24.7
2018-07-06T01:36:39.975Z,24.6
2018-07-06T01:37:30.926Z,24.6
2018-07-06T01:38:20.048Z,24.6
2018-07-06T01:39:10.729Z,24.6
2018-07-06T01:40:00.544Z,24.6
2018-07-06T01:40:51.358Z,24.6
2018-07-06T01:41:40.638Z,24.6
2018-07-06T01:42:30.966Z,24.6
2018-07-06T01:43:20.767Z,24.6
2018-07-06T01:44:11.176Z,24.6
2018-07-06T01:44:59.787Z,24.6
2018-07-06T01:45:50.359Z,24.6
2018-07-06T01:46:41.543Z,24.6
2018-07-06T01:47:30.782Z,24.6
2018-07-06T01:48:20.368Z,24.6
2018-07-06T01:49:10.450Z,24.6
2018-07-06T01:50:01.848Z,24.6
2018-07-06T01:50:50.629Z,24.6
2018-07-06T01:51:41.502Z,24.6
2018-07-06T01:52:31.403Z,24.6
2018-07-06T01:53:21.922Z,24.6
2018-07-06T01:54:11.163Z,24.6
2018-07-06T01:55:01.471Z,24.6
2018-07-06T01:55:50.667Z,24.6
2018-07-06T01:56:40.971Z,24.6
2018-07-06T01:57:31.681Z,24.6
2018-07-06T01:58:21.189Z,24.6
2018-07-06T01:59:12.008Z,24.6
2018-07-06T02:00:02.636Z,24.6
2018-07-06T02:00:52.152Z,24.6
2018-07-06T02:01:43.045Z,24.6
2018-07-06T02:02:32.518Z,24.6
2018-07-06T02:03:22.888Z,24.6
2018-07-06T02:04:12.647Z,24.6
2018-07-06T02:05:02.200Z,24.6
2018-07-06T02:05:52.821Z,24.6
2018-07-06T02:06:42.008Z,24.6
2018-07-06T02:07:32.621Z,24.6
2018-07-06T02:08:22.869Z,24.6
2018-07-06T02:09:12.773Z,24.6
2018-07-06T02:10:03.658Z,24.6
2018-07-06T02:10:52.883Z,24.6
2018-07-06T02:11:43.575Z,24.6
2018-07-06T02:12:32.817Z,24.6
2018-07-06T02:13:23.156Z,24.6
2018-07-06T02:14:13.194Z,24.6
2018-07-06T02:15:03.464Z,24.6
2018-07-06T02:15:53.553Z,24.6
2018-07-06T02:16:43.874Z,24.6
2018-07-06T02:17:33.089Z,24.6
2018-07-06T02:18:23.718Z,24.6
2018-07-06T02:19:14.104Z,24.6
2018-07-06T02:20:03.551Z,24.6
2018-07-06T02:20:54.173Z,24.5
2018-07-06T02:21:44.133Z,24.5
2018-07-06T02:22:33.734Z,24.5
2018-07-06T02:23:24.111Z,24.5
2018-07-06T02:24:13.964Z,24.5
2018-07-06T02:25:04.007Z,24.5
2018-07-06T02:25:54.343Z,24.5
2018-07-06T02:26:44.480Z,24.5
2018-07-06T02:27:34.231Z,24.5
2018-07-06T02:28:24.066Z,24.5
2018-07-06T02:29:14.337Z,24.5
2018-07-06T02:30:05.044Z,24.5
2018-07-06T02:30:54.476Z,24.5
2018-07-06T02:31:45.196Z,24.5
2018-07-06T02:32:34.382Z,24.5
2018-07-06T02:33:24.114Z,24.5
2018-07-06T02:34:15.034Z,24.5
2018-07-06T02:35:05.089Z,24.5
2018-07-06T02:35:54.616Z,24.5
2018-07-06T02:36:45.246Z,24.5
2018-07-06T02:37:35.270Z,24.5
2018-07-06T02:38:25.653Z,24.5
2018-07-06T02:39:15.682Z,24.5
2018-07-06T02:40:05.785Z,24.5
2018-07-06T02:40:55.362Z,24.5
2018-07-06T02:41:45.597Z,24.4
2018-07-06T02:42:34.855Z,24.4
2018-07-06T02:43:25.444Z,24.4
2018-07-06T02:44:16.083Z,24.4
2018-07-06T02:45:05.593Z,24.4
2018-07-06T02:45:56.237Z,24.4
2018-07-06T02:46:45.686Z,24.4
2018-07-06T02:47:35.745Z,24.4
2018-07-06T02:48:25.819Z,24.4
2018-07-06T02:49:16.195Z,24.4
2018-07-06T02:50:06.896Z,24.4
2018-07-06T02:50:56.584Z,24.4
2018-07-06T02:51:46.430Z,24.4
2018-07-06T02:52:36.744Z,24.4
2018-07-06T02:53:25.177Z,24.4
2018-07-06T02:54:15.597Z,24.4
2018-07-06T02:55:06.825Z,24.4
2018-07-06T02:55:56.498Z,24.4
2018-07-06T02:56:46.733Z,24.4
2018-07-06T02:57:35.815Z,24.4
2018-07-06T02:58:25.897Z,24.4
2018-07-06T02:59:16.205Z,24.4
2018-07-06T03:00:06.200Z,24.4
2018-07-06T03:00:56.603Z,24.4
2018-07-06T03:01:46.820Z,24.4
2018-07-06T03:02:37.427Z,24.4
2018-07-06T03:03:27.559Z,24.4
2018-07-06T03:04:16.477Z,24.4
2018-07-06T03:05:07.449Z,24.4
2018-07-06T03:05:57.160Z,24.4
2018-07-06T03:06:47.856Z,24.4
2018-07-06T03:07:38.146Z,24.4
2018-07-06T03:08:28.144Z,24.4
2018-07-06T03:09:17.183Z,24.4
2018-07-06T03:10:07.977Z,24.4
2018-07-06T03:10:57.845Z,24.4
2018-07-06T03:11:48.166Z,24.4
2018-07-06T03:12:38.473Z,24.4
2018-07-06T03:13:27.811Z,24.4
2018-07-06T03:14:18.755Z,24.4
2018-07-06T03:15:08.560Z,24.4
2018-07-06T03:15:58.613Z,24.3
2018-07-06T03:16:48.673Z,24.4
2018-07-06T03:17:38.682Z,24.3
2018-07-06T03:18:27.611Z,24.3
2018-07-06T03:19:17.934Z,24.3
2018-07-06T03:20:07.796Z,24.3
2018-07-06T03:20:58.721Z,24.3
2018-07-06T03:21:48.456Z,24.3
2018-07-06T03:22:38.238Z,24.3
2018-07-06T03:23:29.063Z,24.4
2018-07-06T03:24:18.886Z,24.3
2018-07-06T03:25:24.455Z,24.3
2018-07-06T03:25:58.470Z,24.3
2018-07-06T03:26:48.549Z,24.3
2018-07-06T03:27:37.999Z,24.3
2018-07-06T03:28:32.133Z,24.3
2018-07-06T03:29:18.989Z,24.3
2018-07-06T03:30:09.666Z,24.4
2018-07-06T03:30:59.759Z,24.3
2018-07-06T03:31:48.737Z,24.4
2018-07-06T03:32:40.093Z,24.3
2018-07-06T03:33:28.735Z,24.3
2018-07-06T03:34:19.065Z,24.3
2018-07-06T03:35:09.516Z,24.3
2018-07-06T03:36:00.025Z,24.3
2018-07-06T03:36:50.164Z,24.3
2018-07-06T03:37:39.332Z,24.3
2018-07-06T03:38:30.011Z,24.3
2018-07-06T03:39:20.312Z,24.3
2018-07-06T03:40:10.385Z,24.4
2018-07-06T03:40:59.388Z,24.3
2018-07-06T03:41:50.209Z,24.4
2018-07-06T03:42:39.713Z,24.4
2018-07-06T03:43:30.613Z,24.3
2018-07-06T03:44:19.107Z,24.3
2018-07-06T03:45:10.764Z,24.4
2018-07-06T03:46:01.067Z,24.4
2018-07-06T03:46:50.364Z,24.3
2018-07-06T03:47:40.414Z,24.4
2018-07-06T03:48:31.031Z,24.4
2018-07-06T03:49:21.322Z,24.4
2018-07-06T03:50:09.863Z,24.4
2018-07-06T03:51:00.167Z,24.4
2018-07-06T03:51:50.782Z,24.4
2018-07-06T03:52:40.906Z,24.4
2018-07-06T03:53:30.639Z,24.4
2018-07-06T03:54:21.247Z,24.4
2018-07-06T03:55:11.588Z,24.4
2018-07-06T03:56:01.618Z,24.4
2018-07-06T03:56:50.949Z,24.4
2018-07-06T03:57:40.895Z,24.4
2018-07-06T03:58:30.398Z,24.4
2018-07-06T03:59:21.597Z,24.4
2018-07-06T04:00:12.027Z,24.4
2018-07-06T04:01:02.284Z,24.4
2018-07-06T04:01:51.520Z,24.4
2018-07-06T04:02:41.889Z,24.4
2018-07-06T04:03:32.241Z,24.4
2018-07-06T04:04:21.747Z,24.4
2018-07-06T04:05:11.775Z,24.4
2018-07-06T04:06:01.881Z,24.4
2018-07-06T04:06:52.218Z,24.4
2018-07-06T04:07:42.512Z,24.4
2018-07-06T04:08:31.695Z,24.4
2018-07-06T04:09:23.322Z,24.4
2018-07-06T04:10:12.333Z,24.4
2018-07-06T04:11:03.079Z,24.4
2018-07-06T04:11:53.148Z,24.4
2018-07-06T04:12:42.889Z,24.4
2018-07-06T04:13:32.085Z,24.4
2018-07-06T04:14:23.221Z,24.4
2018-07-06T04:15:12.766Z,24.4
2018-07-06T04:16:04.205Z,24.4
2018-07-06T04:16:52.878Z,24.4
2018-07-06T04:17:42.976Z,24.5
2018-07-06T04:18:32.776Z,24.4
2018-07-06T04:19:23.097Z,24.5
2018-07-06T04:20:13.724Z,24.5
2018-07-06T04:21:03.239Z,24.5
2018-07-06T04:21:52.767Z,24.5
2018-07-06T04:22:43.714Z,24.5
2018-07-06T04:23:32.593Z,24.6
2018-07-06T04:24:23.755Z,24.6
2018-07-06T04:25:13.856Z,24.6
2018-07-06T04:26:03.617Z,24.6
2018-07-06T04:26:52.686Z,24.6
2018-07-06T04:27:43.229Z,24.6
2018-07-06T04:28:33.922Z,24.6
2018-07-06T04:29:24.469Z,24.6
2018-07-06T04:30:13.683Z,24.6
2018-07-06T04:31:03.748Z,24.6
2018-07-06T04:31:54.180Z,24.6
2018-07-06T04:32:44.457Z,24.6
2018-07-06T04:33:34.750Z,24.6
2018-07-06T04:34:24.634Z,24.6
2018-07-06T04:35:14.391Z,24.6
2018-07-06T04:36:04.416Z,24.6
2018-07-06T04:36:54.238Z,24.6
2018-07-06T04:37:44.351Z,24.6
2018-07-06T04:38:34.629Z,24.6
2018-07-06T04:39:24.971Z,24.6
2018-07-06T04:40:14.441Z,24.6
2018-07-06T04:41:05.417Z,24.6
2018-07-06T04:41:54.584Z,24.6
2018-07-06T04:42:45.249Z,24.6
2018-07-06T04:43:35.015Z,24.6
2018-07-06T04:44:25.191Z,24.6
2018-07-06T04:45:14.909Z,24.7
2018-07-06T04:46:04.951Z,24.6
2018-07-06T04:46:54.265Z,24.6
2018-07-06T04:47:45.420Z,24.6
2018-07-06T04:48:35.675Z,24.6
2018-07-06T04:49:25.250Z,24.6
2018-07-06T04:50:15.563Z,24.7
2018-07-06T04:51:07.001Z,24.6
2018-07-06T04:51:55.936Z,24.6
2018-07-06T04:52:46.095Z,24.6
2018-07-06T04:53:36.384Z,24.6
2018-07-06T04:54:25.812Z,24.6
2018-07-06T04:55:15.575Z,24.6
2018-07-06T04:56:06.217Z,24.6
2018-07-06T04:56:56.080Z,24.6
2018-07-06T04:57:45.908Z,24.6
2018-07-06T04:58:35.339Z,24.6
2018-07-06T04:59:24.585Z,24.6
2018-07-06T05:00:16.302Z,24.6
2018-07-06T05:01:05.555Z,24.6
2018-07-06T05:01:55.826Z,24.6
2018-07-06T05:02:47.136Z,24.6
2018-07-06T05:03:35.839Z,24.6
2018-07-06T05:04:26.632Z,24.6
2018-07-06T05:05:15.846Z,24.6
2018-07-06T05:06:06.285Z,24.6
2018-07-06T05:06:56.305Z,24.6
2018-07-06T05:07:46.817Z,24.6
2018-07-06T05:08:36.171Z,24.6
2018-07-06T05:09:26.554Z,24.6
2018-07-06T05:10:16.675Z,24.6
2018-07-06T05:11:06.116Z,24.7
2018-07-06T05:11:56.704Z,24.7
2018-07-06T05:12:46.808Z,24.7
2018-07-06T05:13:36.747Z,24.7
2018-07-06T05:14:26.969Z,24.7
2018-07-06T05:15:16.753Z,24.7
2018-07-06T05:16:07.545Z,24.7
2018-07-06T05:16:58.331Z,24.7
2018-07-06T05:17:47.428Z,24.7
2018-07-06T05:18:38.287Z,24.7
2018-07-06T05:19:28.066Z,24.7
2018-07-06T05:20:17.547Z,24.7
2018-07-06T05:21:07.958Z,24.7
2018-07-06T05:21:57.958Z,24.7
2018-07-06T05:22:48.595Z,24.7
2018-07-06T05:23:37.851Z,24.7
2018-07-06T05:24:28.530Z,24.7
2018-07-06T05:25:17.796Z,24.7
2018-07-06T05:26:08.057Z,24.7
2018-07-06T05:26:58.063Z,24.8
2018-07-06T05:27:49.032Z,24.7
2018-07-06T05:28:38.598Z,24.8
2018-07-06T05:29:27.988Z,24.8
2018-07-06T05:30:18.623Z,24.8
2018-07-06T05:31:08.932Z,24.8
2018-07-06T05:31:59.772Z,24.8
2018-07-06T05:32:48.845Z,24.8
2018-07-06T05:33:39.146Z,24.8
2018-07-06T05:34:29.220Z,24.8
2018-07-06T05:35:19.557Z,24.8
2018-07-06T05:36:09.375Z,24.8
2018-07-06T05:36:59.683Z,24.8
2018-07-06T05:37:49.678Z,24.8
2018-07-06T05:38:39.002Z,24.8
2018-07-06T05:39:29.332Z,24.8
2018-07-06T05:40:19.969Z,24.8
2018-07-06T05:41:08.917Z,24.8
2018-07-06T05:41:59.787Z,24.8
2018-07-06T05:42:49.880Z,24.8
2018-07-06T05:43:39.768Z,24.8
2018-07-06T05:44:29.687Z,24.8
2018-07-06T05:45:19.615Z,24.8
2018-07-06T05:46:09.866Z,24.8
2018-07-06T05:46:59.122Z,24.8
2018-07-06T05:47:49.570Z,24.8
2018-07-06T05:48:39.907Z,24.8
2018-07-06T05:49:29.990Z,24.8
2018-07-06T05:50:19.680Z,24.8
2018-07-06T05:51:10.781Z,24.8
2018-07-06T05:52:00.630Z,24.8
2018-07-06T05:52:50.748Z,24.8
2018-07-06T05:53:40.790Z,24.8
2018-07-06T05:54:29.996Z,24.8
2018-07-06T05:55:20.051Z,24.8
2018-07-06T05:56:10.739Z,24.8
2018-07-06T05:57:00.975Z,24.8
2018-07-06T05:57:50.795Z,24.8
2018-07-06T05:58:40.337Z,24.8
2018-07-06T05:59:30.937Z,24.8
2018-07-06T06:00:21.251Z,24.8
2018-07-06T06:01:10.744Z,24.8
2018-07-06T06:02:01.093Z,24.8
2018-07-06T06:02:51.716Z,24.8
2018-07-06T06:03:40.929Z,24.8
2018-07-06T06:04:31.317Z,24.9
2018-07-06T06:05:20.855Z,24.9
2018-07-06T06:06:11.961Z,24.9
2018-07-06T06:07:01.521Z,24.9
2018-07-06T06:07:50.728Z,24.9
2018-07-06T06:08:41.815Z,24.9
2018-07-06T06:09:31.482Z,24.9
2018-07-06T06:10:21.266Z,24.9
2018-07-06T06:11:11.310Z,24.9
2018-07-06T06:12:01.878Z,25
2018-07-06T06:12:51.475Z,25
2018-07-06T06:13:41.590Z,25.1
2018-07-06T06:14:31.519Z,25
2018-07-06T06:15:21.179Z,25
2018-07-06T06:16:11.656Z,25
2018-07-06T06:17:02.545Z,24.9
2018-07-06T06:17:52.591Z,24.9
2018-07-06T06:18:45.314Z,24.9
2018-07-06T06:19:32.444Z,24.9
2018-07-06T06:20:21.923Z,24.9
2018-07-06T06:21:12.013Z,24.9
2018-07-06T06:22:02.655Z,24.9
2018-07-06T06:22:52.997Z,24.9
2018-07-06T06:23:43.038Z,24.9
2018-07-06T06:24:33.248Z,24.9
2018-07-06T06:25:23.059Z,24.9
2018-07-06T06:26:12.968Z,24.9
2018-07-06T06:27:02.487Z,24.9
2018-07-06T06:27:53.103Z,24.9
2018-07-06T06:28:42.594Z,24.9
2018-07-06T06:29:33.565Z,24.9
2018-07-06T06:30:22.549Z,24.9
2018-07-06T06:31:12.425Z,24.9
2018-07-06T06:32:03.748Z,24.9
2018-07-06T06:32:54.430Z,24.9
2018-07-06T06:33:46.306Z,24.9
2018-07-06T06:34:34.185Z,24.9
2018-07-06T06:35:23.123Z,24.9
2018-07-06T06:36:13.194Z,25
2018-07-06T06:37:04.097Z,25
2018-07-06T06:37:53.561Z,25
2018-07-06T06:38:43.604Z,25
2018-07-06T06:39:34.855Z,25.1
2018-07-06T06:40:23.758Z,25.1
2018-07-06T06:41:14.116Z,25.1
2018-07-06T06:42:04.777Z,25.2
2018-07-06T06:42:53.944Z,25.2
2018-07-06T06:43:44.375Z,25.2
2018-07-06T06:44:34.400Z,25.3
2018-07-06T06:45:24.027Z,25.3
2018-07-06T06:46:15.074Z,25.3
2018-07-06T06:47:04.263Z,25.3
2018-07-06T06:47:54.180Z,25.3
2018-07-06T06:48:44.937Z,25.3
2018-07-06T06:49:34.505Z,25.3
2018-07-06T06:50:24.886Z,25.3
2018-07-06T06:51:15.188Z,25.3
2018-07-06T06:52:04.421Z,25.3
2018-07-06T06:52:55.022Z,25.3
2018-07-06T06:53:44.733Z,25.3
2018-07-06T06:54:34.913Z,25.3
2018-07-06T06:55:24.722Z,25.4
2018-07-06T06:56:15.357Z,25.4
2018-07-06T06:57:05.603Z,25.4
2018-07-06T06:57:54.830Z,25.4
2018-07-06T06:58:45.994Z,25.4
2018-07-06T06:59:35.792Z,25.4
2018-07-06T07:00:34.297Z,25.4
2018-07-06T07:01:15.815Z,25.4
2018-07-06T07:02:05.219Z,25.4
2018-07-06T07:02:55.619Z,25.4
2018-07-06T07:03:45.306Z,25.4
2018-07-06T07:04:36.253Z,25.4
2018-07-06T07:05:25.893Z,25.4
2018-07-06T07:06:16.179Z,25.4
2018-07-06T07:07:05.590Z,25.5
2018-07-06T07:07:56.810Z,25.4
2018-07-06T07:08:46.632Z,25.5
2018-07-06T07:09:36.464Z,25.5
2018-07-06T07:10:26.045Z,25.5
2018-07-06T07:11:16.564Z,25.5
2018-07-06T07:12:06.582Z,25.5
2018-07-06T07:12:56.071Z,25.5
2018-07-06T07:13:47.443Z,25.5
2018-07-06T07:14:36.304Z,25.5
2018-07-06T07:15:26.515Z,25.5
2018-07-06T07:16:16.436Z,25.5
2018-07-06T07:17:06.534Z,25.6
2018-07-06T07:17:56.581Z,25.6
2018-07-06T07:18:47.188Z,25.6
2018-07-06T07:19:36.817Z,25.6
2018-07-06T07:20:25.573Z,25.6
2018-07-06T07:21:16.142Z,25.6
2018-07-06T07:22:07.644Z,25.6
2018-07-06T07:22:56.892Z,25.6
2018-07-06T07:23:48.039Z,25.6
2018-07-06T07:24:37.235Z,25.6
2018-07-06T07:25:27.289Z,25.6
2018-07-06T07:26:17.149Z,25.6
2018-07-06T07:27:07.695Z,25.6
2018-07-06T07:27:58.071Z,25.6
2018-07-06T07:28:47.407Z,25.6
2018-07-06T07:29:37.968Z,25.6
2018-07-06T07:30:27.697Z,25.6
2018-07-06T07:31:17.776Z,25.6
2018-07-06T07:32:07.805Z,25.6
2018-07-06T07:32:58.483Z,25.6
2018-07-06T07:33:47.726Z,25.6
2018-07-06T07:34:38.286Z,25.7
2018-07-06T07:35:28.592Z,25.6
2018-07-06T07:36:18.401Z,25.7
2018-07-06T07:37:09.037Z,25.7
2018-07-06T07:37:58.100Z,25.7
2018-07-06T07:38:48.457Z,25.7
2018-07-06T07:39:38.483Z,25.7
2018-07-06T07:40:28.984Z,25.7
2018-07-06T07:41:19.231Z,25.7
2018-07-06T07:42:08.882Z,25.7
2018-07-06T07:42:58.963Z,25.7
2018-07-06T07:43:49.045Z,25.7
2018-07-06T07:44:38.548Z,25.8
2018-07-06T07:45:29.855Z,25.7
2018-07-06T07:46:19.900Z,25.7
2018-07-06T07:47:10.072Z,25.8
2018-07-06T07:47:58.859Z,25.8
2018-07-06T07:48:49.433Z,25.8
2018-07-06T07:49:39.767Z,25.8
2018-07-06T07:50:29.788Z,25.8
2018-07-06T07:51:19.379Z,25.8
2018-07-06T07:52:09.990Z,25.8
2018-07-06T07:52:59.245Z,25.8
2018-07-06T07:53:50.060Z,25.8
2018-07-06T07:54:41.629Z,25.8
2018-07-06T07:55:29.402Z,25.8
2018-07-06T07:56:20.002Z,25.8
2018-07-06T07:57:09.962Z,25.8
2018-07-06T07:58:00.157Z,25.8
2018-07-06T07:58:49.718Z,25.8
2018-07-06T07:59:39.782Z,25.8
2018-07-06T08:00:32.541Z,25.8
2018-07-06T08:01:24.006Z,25.8
2018-07-06T08:02:10.999Z,25.8
2018-07-06T08:03:01.133Z,25.8
2018-07-06T08:03:50.011Z,25.8
2018-07-06T08:04:40.418Z,25.8
2018-07-06T08:05:31.099Z,25.8
2018-07-06T08:06:21.115Z,25.8
2018-07-06T08:07:11.573Z,25.8
2018-07-06T08:08:01.557Z,25.8
2018-07-06T08:08:50.789Z,25.9
2018-07-06T08:09:40.534Z,25.8
2018-07-06T08:10:30.567Z,25.9
2018-07-06T08:11:20.948Z,25.9
2018-07-06T08:12:10.726Z,25.9
2018-07-06T08:13:01.238Z,25.9
2018-07-06T08:13:51.433Z,25.9
2018-07-06T08:14:41.974Z,25.9
2018-07-06T08:15:31.321Z,25.9
2018-07-06T08:16:21.849Z,25.9
2018-07-06T08:17:11.673Z,25.9
2018-07-06T08:18:01.949Z,25.9
2018-07-06T08:18:51.792Z,25.9
2018-07-06T08:19:42.143Z,25.9
2018-07-06T08:20:31.875Z,25.9
2018-07-06T08:21:22.253Z,25.9
2018-07-06T08:22:12.616Z,25.9
2018-07-06T08:23:02.161Z,25.9
2018-07-06T08:23:52.179Z,25.9
2018-07-06T08:24:41.436Z,25.9
2018-07-06T08:25:33.915Z,25.9
2018-07-06T08:26:22.377Z,25.9
2018-07-06T08:27:13.040Z,25.9
2018-07-06T08:28:02.550Z,25.9
2018-07-06T08:28:52.607Z,25.9
2018-07-06T08:29:42.645Z,25.9
2018-07-06T08:30:33.142Z,25.9
2018-07-06T08:31:23.079Z,25.9
2018-07-06T08:32:12.846Z,25.9
2018-07-06T08:33:02.092Z,25.9
2018-07-06T08:33:52.990Z,25.9
2018-07-06T08:34:43.317Z,26
2018-07-06T08:35:32.241Z,26
2018-07-06T08:36:22.475Z,26
2018-07-06T08:37:13.813Z,26
2018-07-06T08:38:03.443Z,26
2018-07-06T08:38:52.773Z,26
2018-07-06T08:39:44.197Z,26
2018-07-06T08:40:34.069Z,26
2018-07-06T08:41:23.289Z,26
2018-07-06T08:42:14.196Z,26
2018-07-06T08:43:03.684Z,26
2018-07-06T08:43:52.687Z,26
2018-07-06T08:44:43.298Z,26
2018-07-06T08:45:33.918Z,26
2018-07-06T08:46:23.384Z,26
2018-07-06T08:47:14.282Z,26
2018-07-06T08:48:03.823Z,26
2018-07-06T08:48:53.885Z,26
2018-07-06T08:49:43.676Z,26
2018-07-06T08:50:33.556Z,26
2018-07-06T08:51:24.964Z,26
2018-07-06T08:52:12.383Z,26
2018-07-06T08:53:04.011Z,26
2018-07-06T08:53:53.976Z,26
2018-07-06T08:54:45.094Z,26
2018-07-06T08:55:34.811Z,26
2018-07-06T08:56:24.740Z,26.1
2018-07-06T08:57:15.051Z,26.1
2018-07-06T08:58:04.718Z,26
2018-07-06T08:58:55.571Z,26
2018-07-06T08:59:45.043Z,26.1
2018-07-06T09:00:35.369Z,26
2018-07-06T09:01:24.571Z,26.1
2018-07-06T09:02:14.452Z,26.1
2018-07-06T09:03:05.025Z,26.1
2018-07-06T09:03:55.306Z,26.1
2018-07-06T09:04:46.149Z,26.1
2018-07-06T09:05:35.525Z,26
2018-07-06T09:06:24.703Z,26.1
2018-07-06T09:07:15.320Z,26.1
2018-07-06T09:08:05.178Z,26.1
2018-07-06T09:08:55.772Z,26.1
2018-07-06T09:09:46.070Z,26.1
2018-07-06T09:10:35.325Z,26.1
2018-07-06T09:11:25.964Z,26.1
2018-07-06T09:12:15.732Z,26.1
2018-07-06T09:13:08.348Z,26.1
2018-07-06T09:13:55.837Z,26.1
2018-07-06T09:14:46.752Z,26.1
2018-07-06T09:15:35.795Z,26.1
2018-07-06T09:16:26.618Z,26.1
2018-07-06T09:17:16.946Z,26.1
2018-07-06T09:18:06.776Z,26.1
2018-07-06T09:18:55.722Z,26.1
2018-07-06T09:19:50.111Z,26.1
2018-07-06T09:20:36.132Z,26.1
2018-07-06T09:21:26.103Z,26.1
2018-07-06T09:22:16.384Z,26.1
2018-07-06T09:23:06.704Z,26.1
2018-07-06T09:23:56.334Z,26.1
2018-07-06T09:24:47.116Z,26.1
2018-07-06T09:25:39.350Z,26.1
2018-07-06T09:26:27.995Z,26.1
2018-07-06T09:27:17.157Z,26.1
2018-07-06T09:28:07.228Z,26.1
2018-07-06T09:28:57.874Z,26.1
2018-07-06T09:29:47.921Z,26.1
2018-07-06T09:30:37.996Z,26.1
2018-07-06T09:31:27.897Z,26.1
2018-07-06T09:32:18.342Z,26.1
2018-07-06T09:33:07.788Z,26.1
2018-07-06T09:33:57.598Z,26.1
2018-07-06T09:34:47.769Z,26.1
2018-07-06T09:35:37.871Z,26.1
2018-07-06T09:36:27.585Z,26.1
2018-07-06T09:37:17.975Z,26.1
2018-07-06T09:38:08.318Z,26.1
2018-07-06T09:38:58.857Z,26.1
2018-07-06T09:39:48.490Z,26.1
2018-07-06T09:40:38.517Z,26.1
2018-07-06T09:41:28.559Z,26.1
2018-07-06T09:42:18.692Z,26.1
2018-07-06T09:43:08.152Z,26.1
2018-07-06T09:43:59.338Z,26.1
2018-07-06T09:44:48.301Z,26.1
2018-07-06T09:45:38.509Z,26.2
2018-07-06T09:46:29.039Z,26.2
2018-07-06T09:47:19.362Z,26.2
2018-07-06T09:48:08.829Z,26.2
2018-07-06T09:48:59.194Z,26.2
2018-07-06T09:49:49.185Z,26.2
2018-07-06T09:50:39.233Z,26.2
2018-07-06T09:51:29.109Z,26.2
2018-07-06T09:52:19.417Z,26.2
2018-07-06T09:53:09.836Z,26.1
2018-07-06T09:53:59.577Z,26.2
2018-07-06T09:54:49.359Z,26.2
2018-07-06T09:55:39.704Z,26.2
2018-07-06T09:56:29.480Z,26.2
2018-07-06T09:57:19.575Z,26.2
2018-07-06T09:58:11.288Z,26.2
2018-07-06T09:58:59.967Z,26.2
2018-07-06T09:59:49.772Z,26.2
2018-07-06T10:00:39.799Z,26.3
2018-07-06T10:01:30.421Z,26.3
2018-07-06T10:02:20.549Z,26.3
2018-07-06T10:03:09.454Z,26.3
2018-07-06T10:04:00.288Z,26.3
2018-07-06T10:04:50.177Z,26.3
2018-07-06T10:05:41.172Z,26.3
2018-07-06T10:06:30.306Z,26.3
2018-07-06T10:07:20.385Z,26.3
2018-07-06T10:08:10.169Z,26.3
2018-07-06T10:09:00.568Z,26.3
2018-07-06T10:09:50.440Z,26.3
2018-07-06T10:10:40.899Z,26.3
2018-07-06T10:11:30.974Z,26.3
2018-07-06T10:12:20.461Z,26.3
2018-07-06T10:13:11.082Z,26.3
2018-07-06T10:14:01.159Z,26.3
2018-07-06T10:14:51.177Z,26.3
2018-07-06T10:15:40.976Z,26.3
2018-07-06T10:16:31.382Z,26.3
2018-07-06T10:17:21.401Z,26.3
2018-07-06T10:18:11.194Z,26.3
2018-07-06T10:19:01.599Z,26.3
2018-07-06T10:19:49.307Z,26.3
2018-07-06T10:20:41.353Z,26.4
2018-07-06T10:21:32.037Z,26.4
2018-07-06T10:22:21.273Z,26.4
2018-07-06T10:23:11.898Z,26.4
2018-07-06T10:24:01.353Z,26.4
2018-07-06T10:24:50.919Z,26.4
2018-07-06T10:25:41.870Z,26.4
2018-07-06T10:26:31.373Z,26.4
2018-07-06T10:27:22.100Z,26.4
2018-07-06T10:28:11.957Z,26.4
2018-07-06T10:29:02.320Z,26.4
2018-07-06T10:29:52.087Z,26.4
2018-07-06T10:30:42.239Z,26.4
2018-07-06T10:31:31.977Z,26.4
2018-07-06T10:32:22.634Z,26.4
2018-07-06T10:33:13.320Z,26.4
2018-07-06T10:34:03.881Z,26.4
2018-07-06T10:34:52.289Z,26.4
2018-07-06T10:35:43.124Z,26.4
2018-07-06T10:36:32.417Z,26.4
2018-07-06T10:37:22.976Z,26.4
2018-07-06T10:38:13.043Z,26.4
2018-07-06T10:39:03.050Z,26.4
2018-07-06T10:39:57.216Z,26.4
2018-07-06T10:40:42.706Z,26.4
2018-07-06T10:41:33.538Z,26.4
2018-07-06T10:42:23.059Z,26.4
2018-07-06T10:43:13.676Z,26.4
2018-07-06T10:44:03.768Z,26.4
2018-07-06T10:44:53.839Z,26.4
2018-07-06T10:45:43.583Z,26.4
2018-07-06T10:46:32.714Z,26.4
2018-07-06T10:47:22.959Z,26.4
2018-07-06T10:48:12.975Z,26.4
2018-07-06T10:49:04.114Z,26.4
2018-07-06T10:49:53.701Z,26.4
2018-07-06T10:50:43.814Z,26.4
2018-07-06T10:51:34.114Z,26.4
2018-07-06T10:52:24.175Z,26.4
2018-07-06T10:53:13.931Z,26.4
2018-07-06T10:54:04.251Z,26.4
2018-07-06T10:54:54.685Z,26.4
2018-07-06T10:55:44.444Z,26.4
2018-07-06T10:56:34.491Z,26.4
2018-07-06T10:57:24.523Z,26.4
2018-07-06T10:58:14.628Z,26.4
2018-07-06T10:59:03.828Z,26.4
2018-07-06T10:59:55.048Z,26.4
2018-07-06T11:00:43.968Z,26.4
2018-07-06T11:01:34.664Z,26.4
2018-07-06T11:02:24.970Z,26.4
2018-07-06T11:03:14.743Z,26.4
2018-07-06T11:04:05.073Z,26.4
2018-07-06T11:04:55.308Z,26.4
2018-07-06T11:05:44.420Z,26.4
2018-07-06T11:06:35.510Z,26.4
2018-07-06T11:07:25.620Z,26.4
2018-07-06T11:08:15.128Z,26.4
2018-07-06T11:09:05.723Z,26.4